Flight Track Log - Related Links

Times and Time Zones

All times are in EST time to prevent confusion due to time zone crossing. See the SWA607 flight status page for this flight to view local times or setup timezone preferences in your user account.

Time Position Orientation Groundspeed Altitude Reporting Facility
EST Latitude Longitude Course Direction KTS MPH feet Rate Location/Type
Sun 10:32:28 PM 34.1239 -117.8531 296° West 288 331 10,300  Level Los Angeles Center
Sun 10:33:29 PM 34.1808 -117.9367 309° West 316 364 13,300 3,268 Climbing Los Angeles Center
Sun 10:34:31 PM 34.2433 -118.0286 309° West 349 402 17,000 3,220 Climbing Los Angeles Center
Sun 10:35:00 PM 34.4645 -118.1066 312° West  Level Estimated
Sun 10:35:32 PM 34.3094 -118.1247 310° West 370 426 19,900  Level Los Angeles Center
Sun 10:36:34 PM 34.3917 -118.2489 309° West 397 457 23,500 2,878 Climbing Los Angeles Center
Sun 10:37:35 PM 34.4631 -118.3528 310° West 403 464 25,800 2,133 Climbing Los Angeles Center
Sun 10:38:49 PM 34.5564 -118.4833 311° West 429 494 28,300 2,250 Climbing Los Angeles Center
Sun 10:39:51 PM 34.6508 -118.5764 321° Northwest 438 504 30,900 2,293 Climbing Los Angeles Center
Sun 10:40:52 PM 34.7453 -118.6669 322° Northwest 434 499 33,000 1,512 Climbing Los Angeles Center
Sun 10:41:54 PM 34.8386 -118.7581 321° Northwest 432 497 34,000 488 Climbing Los Angeles Center
Sun 10:42:55 PM 34.9453 -118.8633 321° Northwest 432 497 34,000  Level Los Angeles Center
Sun 10:43:57 PM 35.0253 -118.9678 313° West 425 489 34,000  Level Los Angeles Center
Sun 10:44:59 PM 35.0822 -119.0936 299° West 425 489 34,000  Level Los Angeles Center
Sun 10:46:00 PM 35.1400 -119.2189 299° West 423 487 34,000  Level Los Angeles Center
Sun 10:47:02 PM 35.2003 -119.3406 301° West 421 484 34,000  Level Los Angeles Center
Sun 10:48:03 PM 35.2600 -119.4642 301° West 422 486 34,000  Level Los Angeles Center
Sun 10:49:05 PM 35.3331 -119.6117 301° West 425 489 34,000  Level Los Angeles Center
Sun 10:50:06 PM 35.3931 -119.7364 301° West 426 490 34,000  Level Los Angeles Center
Sun 10:51:08 PM 35.4511 -119.8567 301° West 413 475 34,000  Level Los Angeles Center
Sun 10:52:09 PM 35.5100 -119.9786 301° West 417 480 34,000  Level Los Angeles Center
Sun 10:53:11 PM 35.5689 -120.1017 300° West 421 484 34,000  Level Los Angeles Center
Sun 10:54:13 PM 35.6317 -120.2364 300° West 420 483 34,000  Level Los Angeles Center
Sun 10:54:49 PM 35.6608 -120.2972 301° West 420 483 34,000  Level Oakland Center
Sun 10:55:50 PM 35.7153 -120.4497 294° West 420 483 34,000  Level Oakland Center
Sun 10:56:51 PM 35.7069 -120.5892 266° West 416 479 34,000  Level Oakland Center
Sun 10:57:52 PM 35.6964 -120.7300 265° West 415 478 34,000 -295 Level Oakland Center
Sun 10:58:53 PM 35.7328 -120.8544 290° West 424 488 33,400 -1,131 Descending Oakland Center
Sun 10:59:54 PM 35.8386 -120.9208 333° Northwest 426 490 31,700 -1,884 Descending Oakland Center
Sun 11:00:54 PM 35.9339 -120.9986 327° Northwest 413 475 29,600 -2,033 Descending Oakland Center
Sun 11:01:55 PM 36.0278 -121.0728 327° Northwest 403 464 27,600 -1,967 Descending Oakland Center
Sun 11:02:56 PM 36.1172 -121.1461 326° Northwest 391 450 25,600 -1,918 Descending Oakland Center
Sun 11:03:57 PM 36.2044 -121.2156 327° Northwest 379 436 23,700 -1,869 Descending Oakland Center
Sun 11:04:58 PM 36.2894 -121.2842 327° Northwest 367 422 21,800 -1,869 Descending Oakland Center
Sun 11:05:59 PM 36.3733 -121.3522 327° Northwest 361 415 19,900 -2,016 Descending Oakland Center
Sun 11:07:00 PM 36.4803 -121.4175 334° Northwest 361 415 17,700 -2,115 Descending Oakland Center
Sun 11:08:01 PM 36.5786 -121.4406 349° North 361 415 15,600 -2,115 Descending Oakland Center
Sun 11:09:02 PM 36.6756 -121.4669 348° North 357 411 13,400 -2,164 Descending Oakland Center
Sun 11:10:03 PM 36.7708 -121.4906 349° North 351 404 11,200 -1,820 Descending Oakland Center
Sun 11:11:04 PM 36.8608 -121.5197 345° North 343 395 9,700 -1,180 Descending Oakland Center
Sun 11:12:05 PM 36.9400 -121.5425 347° North 314 361 8,800 -1,328 Descending Oakland Center
Sun 11:13:06 PM 37.0150 -121.5836 336° Northwest 300 345 7,000 -1,672 Descending Oakland Center
Sun 11:14:07 PM 37.0803 -121.6433 324° Northwest 296 341 5,400 -984 Descending Oakland Center
Sun 11:15:08 PM 37.1428 -121.6972 326° Northwest 280 322 5,000 -492 Descending Oakland Center
Sun 11:16:09 PM 37.1936 -121.7461 323° Northwest 248 285 4,400 -836 Descending Oakland Center
Sun 11:17:10 PM 37.2392 -121.7975 318° Northwest 232 267 3,300 -1,033 Descending Oakland Center
Sun 11:18:11 PM 37.2808 -121.8411 320° Northwest 213 245 2,300 -1,180 Descending Oakland Center
Sun 11:19:12 PM 37.3258 -121.8881 320° Northwest 189 217 900 -1,082 Descending Oakland Center
Sun 11:20:13 PM 37.3550 -121.9189 320° Northwest 156 180 100 -787 Descending Oakland Center
Sun 11:22:00 PM 37.3500 -121.9167 North  Level FlightAware Approximate

Login

Don't have an account? Register now (free) for customized features, flight alerts, and more!